sensor_id;sensor_type;location;lat;lon;timestamp;P1;durP1;ratioP1;P2;durP2;ratioP2
7983;SDS011;4037;47.980;10.172;2022-09-02T00:00:14;4.10;;;3.00;;
7983;SDS011;4037;47.980;10.172;2022-09-02T00:02:41;3.60;;;3.30;;
7983;SDS011;4037;47.980;10.172;2022-09-02T00:05:07;4.70;;;3.80;;
7983;SDS011;4037;47.980;10.172;2022-09-02T00:07:33;4.40;;;3.73;;
7983;SDS011;4037;47.980;10.172;2022-09-02T00:09:59;3.40;;;3.00;;
7983;SDS011;4037;47.980;10.172;2022-09-02T00:12:25;3.93;;;3.20;;
7983;SDS011;4037;47.980;10.172;2022-09-02T00:14:51;4.07;;;3.67;;
7983;SDS011;4037;47.980;10.172;2022-09-02T00:17:17;4.07;;;3.67;;
7983;SDS011;4037;47.980;10.172;2022-09-02T00:19:43;4.17;;;3.60;;
7983;SDS011;4037;47.980;10.172;2022-09-02T00:22:09;3.53;;;3.13;;
7983;SDS011;4037;47.980;10.172;2022-09-02T00:24:35;5.27;;;3.60;;
7983;SDS011;4037;47.980;10.172;2022-09-02T00:27:02;4.30;;;3.90;;
7983;SDS011;4037;47.980;10.172;2022-09-02T00:29:28;4.73;;;4.33;;
7983;SDS011;4037;47.980;10.172;2022-09-02T00:31:55;4.07;;;3.77;;
7983;SDS011;4037;47.980;10.172;2022-09-02T00:34:21;4.23;;;3.83;;
7983;SDS011;4037;47.980;10.172;2022-09-02T00:36:47;3.57;;;3.27;;
7983;SDS011;4037;47.980;10.172;2022-09-02T00:39:13;4.47;;;4.07;;
7983;SDS011;4037;47.980;10.172;2022-09-02T00:41:40;3.93;;;3.63;;
7983;SDS011;4037;47.980;10.172;2022-09-02T00:44:08;3.90;;;3.50;;
7983;SDS011;4037;47.980;10.172;2022-09-02T00:46:35;4.30;;;4.00;;
7983;SDS011;4037;47.980;10.172;2022-09-02T00:51:29;5.20;;;3.70;;
7983;SDS011;4037;47.980;10.172;2022-09-02T00:53:57;4.17;;;3.77;;
7983;SDS011;4037;47.980;10.172;2022-09-02T00:56:24;3.77;;;3.47;;
7983;SDS011;4037;47.980;10.172;2022-09-02T00:58:51;4.87;;;3.60;;
7983;SDS011;4037;47.980;10.172;2022-09-02T01:01:18;4.30;;;4.00;;
7983;SDS011;4037;47.980;10.172;2022-09-02T01:03:46;5.77;;;4.23;;
7983;SDS011;4037;47.980;10.172;2022-09-02T01:06:12;4.30;;;3.90;;
7983;SDS011;4037;47.980;10.172;2022-09-02T01:08:39;3.93;;;3.63;;
7983;SDS011;4037;47.980;10.172;2022-09-02T01:11:07;4.23;;;3.50;;
7983;SDS011;4037;47.980;10.172;2022-09-02T01:13:36;5.07;;;4.10;;
7983;SDS011;4037;47.980;10.172;2022-09-02T01:16:07;4.13;;;3.73;;
7983;SDS011;4037;47.980;10.172;2022-09-02T01:18:34;4.47;;;4.07;;
7983;SDS011;4037;47.980;10.172;2022-09-02T01:21:02;4.70;;;4.30;;
7983;SDS011;4037;47.980;10.172;2022-09-02T01:23:28;4.50;;;4.10;;
7983;SDS011;4037;47.980;10.172;2022-09-02T01:25:55;4.53;;;4.00;;
7983;SDS011;4037;47.980;10.172;2022-09-02T01:28:21;5.23;;;3.93;;
7983;SDS011;4037;47.980;10.172;2022-09-02T01:30:49;4.23;;;3.83;;
7983;SDS011;4037;47.980;10.172;2022-09-02T01:33:15;4.70;;;4.30;;
7983;SDS011;4037;47.980;10.172;2022-09-02T01:35:42;4.30;;;3.90;;
7983;SDS011;4037;47.980;10.172;2022-09-02T01:38:08;5.50;;;4.37;;
7983;SDS011;4037;47.980;10.172;2022-09-02T01:40:35;4.40;;;4.00;;
7983;SDS011;4037;47.980;10.172;2022-09-02T01:43:03;6.07;;;4.13;;
7983;SDS011;4037;47.980;10.172;2022-09-02T01:45:31;4.50;;;4.10;;
7983;SDS011;4037;47.980;10.172;2022-09-02T01:47:57;5.17;;;4.53;;
7983;SDS011;4037;47.980;10.172;2022-09-02T01:50:23;5.07;;;4.07;;
7983;SDS011;4037;47.980;10.172;2022-09-02T01:52:49;4.80;;;4.30;;
7983;SDS011;4037;47.980;10.172;2022-09-02T01:55:15;4.60;;;4.20;;
7983;SDS011;4037;47.980;10.172;2022-09-02T01:57:41;5.17;;;4.67;;
7983;SDS011;4037;47.980;10.172;2022-09-02T02:00:08;4.60;;;4.10;;
7983;SDS011;4037;47.980;10.172;2022-09-02T02:02:35;5.93;;;4.17;;
7983;SDS011;4037;47.980;10.172;2022-09-02T02:05:02;5.17;;;4.00;;
7983;SDS011;4037;47.980;10.172;2022-09-02T02:07:28;6.03;;;4.43;;
7983;SDS011;4037;47.980;10.172;2022-09-02T02:09:54;4.73;;;4.17;;
7983;SDS011;4037;47.980;10.172;2022-09-02T02:12:20;8.30;;;4.70;;
7983;SDS011;4037;47.980;10.172;2022-09-02T02:14:46;4.83;;;4.43;;
7983;SDS011;4037;47.980;10.172;2022-09-02T02:17:12;5.80;;;4.60;;
7983;SDS011;4037;47.980;10.172;2022-09-02T02:19:39;5.20;;;4.70;;
7983;SDS011;4037;47.980;10.172;2022-09-02T02:22:05;4.77;;;4.37;;
7983;SDS011;4037;47.980;10.172;2022-09-02T02:24:31;5.83;;;5.00;;
7983;SDS011;4037;47.980;10.172;2022-09-02T02:26:57;5.43;;;4.50;;
7983;SDS011;4037;47.980;10.172;2022-09-02T02:29:23;5.70;;;5.10;;
7983;SDS011;4037;47.980;10.172;2022-09-02T02:31:49;5.87;;;4.63;;
7983;SDS011;4037;47.980;10.172;2022-09-02T02:34:15;4.97;;;4.57;;
7983;SDS011;4037;47.980;10.172;2022-09-02T02:36:42;6.03;;;4.77;;
7983;SDS011;4037;47.980;10.172;2022-09-02T02:39:08;5.37;;;4.50;;
7983;SDS011;4037;47.980;10.172;2022-09-02T02:41:35;4.97;;;4.57;;
7983;SDS011;4037;47.980;10.172;2022-09-02T02:44:02;4.60;;;4.20;;
7983;SDS011;4037;47.980;10.172;2022-09-02T02:46:28;4.90;;;4.23;;
7983;SDS011;4037;47.980;10.172;2022-09-02T02:48:55;4.60;;;4.13;;
7983;SDS011;4037;47.980;10.172;2022-09-02T02:51:23;6.37;;;5.17;;
7983;SDS011;4037;47.980;10.172;2022-09-02T02:53:50;5.63;;;4.80;;
7983;SDS011;4037;47.980;10.172;2022-09-02T02:56:16;4.73;;;4.10;;
7983;SDS011;4037;47.980;10.172;2022-09-02T02:58:42;5.03;;;4.50;;
7983;SDS011;4037;47.980;10.172;2022-09-02T03:01:08;5.13;;;4.50;;
7983;SDS011;4037;47.980;10.172;2022-09-02T03:03:34;5.63;;;5.13;;
7983;SDS011;4037;47.980;10.172;2022-09-02T03:06:00;7.10;;;5.23;;
7983;SDS011;4037;47.980;10.172;2022-09-02T03:08:26;5.50;;;4.55;;
7983;SDS011;4037;47.980;10.172;2022-09-02T03:10:53;4.73;;;4.33;;
7983;SDS011;4037;47.980;10.172;2022-09-02T03:13:20;5.10;;;4.60;;
7983;SDS011;4037;47.980;10.172;2022-09-02T03:15:46;5.17;;;4.43;;
7983;SDS011;4037;47.980;10.172;2022-09-02T03:18:13;4.83;;;4.43;;
7983;SDS011;4037;47.980;10.172;2022-09-02T03:20:39;5.47;;;4.97;;
7983;SDS011;4037;47.980;10.172;2022-09-02T03:23:05;5.87;;;5.20;;
7983;SDS011;4037;47.980;10.172;2022-09-02T03:25:32;5.10;;;4.60;;
7983;SDS011;4037;47.980;10.172;2022-09-02T03:27:59;5.00;;;4.57;;
7983;SDS011;4037;47.980;10.172;2022-09-02T03:30:26;4.30;;;4.00;;
7983;SDS011;4037;47.980;10.172;2022-09-02T03:32:53;5.67;;;4.70;;
7983;SDS011;4037;47.980;10.172;2022-09-02T03:35:20;5.07;;;4.57;;
7983;SDS011;4037;47.980;10.172;2022-09-02T03:37:47;4.70;;;4.30;;
7983;SDS011;4037;47.980;10.172;2022-09-02T03:40:14;5.20;;;4.70;;
7983;SDS011;4037;47.980;10.172;2022-09-02T03:42:41;6.97;;;4.37;;
7983;SDS011;4037;47.980;10.172;2022-09-02T03:45:08;5.73;;;4.57;;
7983;SDS011;4037;47.980;10.172;2022-09-02T03:47:35;8.27;;;4.40;;
7983;SDS011;4037;47.980;10.172;2022-09-02T03:50:01;9.50;;;5.67;;
7983;SDS011;4037;47.980;10.172;2022-09-02T03:52:28;8.43;;;5.27;;
7983;SDS011;4037;47.980;10.172;2022-09-02T03:54:54;5.97;;;4.90;;
7983;SDS011;4037;47.980;10.172;2022-09-02T03:57:20;8.13;;;5.03;;
7983;SDS011;4037;47.980;10.172;2022-09-02T03:59:50;6.40;;;4.60;;
7983;SDS011;4037;47.980;10.172;2022-09-02T04:02:16;5.60;;;4.90;;
7983;SDS011;4037;47.980;10.172;2022-09-02T04:04:42;6.43;;;4.53;;
7983;SDS011;4037;47.980;10.172;2022-09-02T04:07:08;7.20;;;5.67;;
7983;SDS011;4037;47.980;10.172;2022-09-02T04:09:34;8.23;;;4.77;;
7983;SDS011;4037;47.980;10.172;2022-09-02T04:12:01;5.60;;;5.00;;
7983;SDS011;4037;47.980;10.172;2022-09-02T04:14:27;6.10;;;5.50;;
7983;SDS011;4037;47.980;10.172;2022-09-02T04:23:01;6.53;;;5.27;;
7983;SDS011;4037;47.980;10.172;2022-09-02T04:25:27;5.73;;;5.23;;
7983;SDS011;4037;47.980;10.172;2022-09-02T04:27:53;11.63;;;6.10;;
7983;SDS011;4037;47.980;10.172;2022-09-02T04:30:19;6.07;;;5.57;;
7983;SDS011;4037;47.980;10.172;2022-09-02T04:32:45;6.43;;;5.83;;
7983;SDS011;4037;47.980;10.172;2022-09-02T04:35:11;5.87;;;5.37;;
7983;SDS011;4037;47.980;10.172;2022-09-02T04:37:37;5.73;;;5.23;;
7983;SDS011;4037;47.980;10.172;2022-09-02T04:40:03;9.77;;;6.07;;
7983;SDS011;4037;47.980;10.172;2022-09-02T04:42:29;5.70;;;5.20;;
7983;SDS011;4037;47.980;10.172;2022-09-02T04:44:55;6.43;;;5.83;;
7983;SDS011;4037;47.980;10.172;2022-09-02T04:47:22;6.80;;;5.40;;
7983;SDS011;4037;47.980;10.172;2022-09-02T04:49:49;7.73;;;6.03;;
7983;SDS011;4037;47.980;10.172;2022-09-02T04:52:15;6.00;;;5.40;;
7983;SDS011;4037;47.980;10.172;2022-09-02T04:54:41;6.43;;;5.83;;
7983;SDS011;4037;47.980;10.172;2022-09-02T04:57:07;6.90;;;5.10;;
7983;SDS011;4037;47.980;10.172;2022-09-02T04:59:34;6.43;;;5.83;;
7983;SDS011;4037;47.980;10.172;2022-09-02T05:02:01;6.83;;;6.23;;
7983;SDS011;4037;47.980;10.172;2022-09-02T05:04:27;6.57;;;5.97;;
7983;SDS011;4037;47.980;10.172;2022-09-02T05:06:55;6.40;;;5.87;;
7983;SDS011;4037;47.980;10.172;2022-09-02T05:09:24;6.47;;;5.87;;
7983;SDS011;4037;47.980;10.172;2022-09-02T05:11:50;11.13;;;8.07;;
7983;SDS011;4037;47.980;10.172;2022-09-02T05:14:21;8.77;;;6.93;;
7983;SDS011;4037;47.980;10.172;2022-09-02T05:16:48;7.23;;;6.60;;
7983;SDS011;4037;47.980;10.172;2022-09-02T05:19:17;9.33;;;7.37;;
7983;SDS011;4037;47.980;10.172;2022-09-02T05:21:44;6.63;;;6.03;;
7983;SDS011;4037;47.980;10.172;2022-09-02T05:24:11;7.13;;;6.43;;
7983;SDS011;4037;47.980;10.172;2022-09-02T05:26:37;8.10;;;6.40;;
7983;SDS011;4037;47.980;10.172;2022-09-02T05:29:04;7.80;;;7.07;;
7983;SDS011;4037;47.980;10.172;2022-09-02T05:31:34;7.33;;;6.33;;
7983;SDS011;4037;47.980;10.172;2022-09-02T05:34:00;7.27;;;6.57;;
7983;SDS011;4037;47.980;10.172;2022-09-02T05:36:26;8.43;;;7.07;;
7983;SDS011;4037;47.980;10.172;2022-09-02T05:38:52;8.63;;;7.43;;
7983;SDS011;4037;47.980;10.172;2022-09-02T05:41:20;7.03;;;6.37;;
7983;SDS011;4037;47.980;10.172;2022-09-02T05:43:50;8.00;;;7.00;;
7983;SDS011;4037;47.980;10.172;2022-09-02T05:46:17;7.90;;;7.10;;
7983;SDS011;4037;47.980;10.172;2022-09-02T05:48:45;7.90;;;7.10;;
7983;SDS011;4037;47.980;10.172;2022-09-02T05:51:41;7.97;;;6.93;;
7983;SDS011;4037;47.980;10.172;2022-09-02T05:54:08;8.43;;;6.60;;
7983;SDS011;4037;47.980;10.172;2022-09-02T05:56:36;8.33;;;7.43;;
7983;SDS011;4037;47.980;10.172;2022-09-02T05:59:02;7.07;;;6.47;;
7983;SDS011;4037;47.980;10.172;2022-09-02T06:01:28;8.43;;;7.63;;
7983;SDS011;4037;47.980;10.172;2022-09-02T06:03:54;7.63;;;6.80;;
7983;SDS011;4037;47.980;10.172;2022-09-02T06:06:21;7.27;;;6.47;;
7983;SDS011;4037;47.980;10.172;2022-09-02T06:08:48;8.17;;;7.40;;
7983;SDS011;4037;47.980;10.172;2022-09-02T06:11:14;8.20;;;7.47;;
7983;SDS011;4037;47.980;10.172;2022-09-02T06:13:41;7.80;;;7.00;;
7983;SDS011;4037;47.980;10.172;2022-09-02T06:16:10;8.50;;;7.70;;
7983;SDS011;4037;47.980;10.172;2022-09-02T06:18:37;8.57;;;6.60;;
7983;SDS011;4037;47.980;10.172;2022-09-02T06:21:03;8.67;;;7.20;;
7983;SDS011;4037;47.980;10.172;2022-09-02T06:23:30;10.57;;;7.33;;
7983;SDS011;4037;47.980;10.172;2022-09-02T06:25:58;7.87;;;7.03;;
7983;SDS011;4037;47.980;10.172;2022-09-02T06:28:24;7.97;;;7.17;;
7983;SDS011;4037;47.980;10.172;2022-09-02T06:30:52;7.87;;;7.17;;
7983;SDS011;4037;47.980;10.172;2022-09-02T06:33:18;7.60;;;6.63;;
7983;SDS011;4037;47.980;10.172;2022-09-02T06:35:44;8.67;;;7.37;;
7983;SDS011;4037;47.980;10.172;2022-09-02T06:38:11;7.97;;;7.20;;
7983;SDS011;4037;47.980;10.172;2022-09-02T06:40:47;8.60;;;6.80;;
7983;SDS011;4037;47.980;10.172;2022-09-02T06:43:13;8.07;;;7.30;;
7983;SDS011;4037;47.980;10.172;2022-09-02T06:45:40;8.27;;;7.30;;
7983;SDS011;4037;47.980;10.172;2022-09-02T06:48:06;8.53;;;7.53;;
7983;SDS011;4037;47.980;10.172;2022-09-02T06:50:32;9.30;;;6.90;;
7983;SDS011;4037;47.980;10.172;2022-09-02T06:52:58;7.93;;;7.13;;
7983;SDS011;4037;47.980;10.172;2022-09-02T06:55:25;8.07;;;7.23;;
7983;SDS011;4037;47.980;10.172;2022-09-02T06:57:51;8.20;;;7.37;;
7983;SDS011;4037;47.980;10.172;2022-09-02T07:00:17;8.53;;;7.63;;
7983;SDS011;4037;47.980;10.172;2022-09-02T07:02:44;9.03;;;7.13;;
7983;SDS011;4037;47.980;10.172;2022-09-02T07:05:30;10.53;;;7.70;;
7983;SDS011;4037;47.980;10.172;2022-09-02T07:07:56;7.87;;;7.03;;
7983;SDS011;4037;47.980;10.172;2022-09-02T07:10:22;11.23;;;7.07;;
7983;SDS011;4037;47.980;10.172;2022-09-02T07:12:48;8.47;;;7.43;;
7983;SDS011;4037;47.980;10.172;2022-09-02T07:15:14;8.50;;;7.60;;
7983;SDS011;4037;47.980;10.172;2022-09-02T07:17:40;8.77;;;7.57;;
7983;SDS011;4037;47.980;10.172;2022-09-02T07:20:06;7.70;;;6.93;;
7983;SDS011;4037;47.980;10.172;2022-09-02T07:22:32;8.00;;;6.73;;
7983;SDS011;4037;47.980;10.172;2022-09-02T07:24:59;8.50;;;7.03;;
7983;SDS011;4037;47.980;10.172;2022-09-02T07:27:25;8.20;;;7.40;;
7983;SDS011;4037;47.980;10.172;2022-09-02T07:29:51;8.40;;;7.60;;
7983;SDS011;4037;47.980;10.172;2022-09-02T07:32:17;7.43;;;6.67;;
7983;SDS011;4037;47.980;10.172;2022-09-02T07:34:43;7.97;;;6.93;;
7983;SDS011;4037;47.980;10.172;2022-09-02T07:37:09;7.80;;;7.20;;
7983;SDS011;4037;47.980;10.172;2022-09-02T07:39:36;7.50;;;6.77;;
7983;SDS011;4037;47.980;10.172;2022-09-02T07:42:02;7.63;;;6.93;;
7983;SDS011;4037;47.980;10.172;2022-09-02T07:44:28;7.20;;;6.50;;
7983;SDS011;4037;47.980;10.172;2022-09-02T07:46:56;9.03;;;6.57;;
7983;SDS011;4037;47.980;10.172;2022-09-02T07:49:22;7.70;;;6.70;;
7983;SDS011;4037;47.980;10.172;2022-09-02T07:51:48;7.13;;;5.53;;
7983;SDS011;4037;47.980;10.172;2022-09-02T07:54:16;7.90;;;6.90;;
7983;SDS011;4037;47.980;10.172;2022-09-02T07:56:43;7.17;;;6.47;;
7983;SDS011;4037;47.980;10.172;2022-09-02T07:59:09;6.67;;;5.97;;
7983;SDS011;4037;47.980;10.172;2022-09-02T08:01:35;7.73;;;6.57;;
7983;SDS011;4037;47.980;10.172;2022-09-02T08:04:02;7.37;;;5.43;;
7983;SDS011;4037;47.980;10.172;2022-09-02T08:06:28;7.30;;;6.43;;
7983;SDS011;4037;47.980;10.172;2022-09-02T08:08:55;6.83;;;6.13;;
7983;SDS011;4037;47.980;10.172;2022-09-02T08:11:22;6.93;;;6.10;;
7983;SDS011;4037;47.980;10.172;2022-09-02T08:13:48;6.80;;;6.10;;
7983;SDS011;4037;47.980;10.172;2022-09-02T08:16:14;6.83;;;6.10;;
7983;SDS011;4037;47.980;10.172;2022-09-02T08:18:40;7.03;;;5.97;;
7983;SDS011;4037;47.980;10.172;2022-09-02T08:21:06;6.77;;;5.97;;
7983;SDS011;4037;47.980;10.172;2022-09-02T08:23:32;6.93;;;6.23;;
7983;SDS011;4037;47.980;10.172;2022-09-02T08:25:59;5.73;;;5.23;;
7983;SDS011;4037;47.980;10.172;2022-09-02T08:28:26;7.47;;;5.60;;
7983;SDS011;4037;47.980;10.172;2022-09-02T08:30:53;7.37;;;5.20;;
7983;SDS011;4037;47.980;10.172;2022-09-02T08:33:23;6.53;;;4.83;;
7983;SDS011;4037;47.980;10.172;2022-09-02T08:35:49;5.70;;;5.20;;
7983;SDS011;4037;47.980;10.172;2022-09-02T08:38:15;4.80;;;4.40;;
7983;SDS011;4037;47.980;10.172;2022-09-02T08:40:41;5.60;;;5.10;;
7983;SDS011;4037;47.980;10.172;2022-09-02T08:43:14;5.63;;;4.93;;
7983;SDS011;4037;47.980;10.172;2022-09-02T08:45:45;7.53;;;5.50;;
7983;SDS011;4037;47.980;10.172;2022-09-02T08:48:47;6.00;;;5.40;;
7983;SDS011;4037;47.980;10.172;2022-09-02T08:51:06;5.50;;;5.00;;
7983;SDS011;4037;47.980;10.172;2022-09-02T08:56:37;8.43;;;5.10;;
7983;SDS011;4037;47.980;10.172;2022-09-02T08:59:04;5.13;;;4.67;;
7983;SDS011;4037;47.980;10.172;2022-09-02T09:04:11;5.60;;;4.57;;
7983;SDS011;4037;47.980;10.172;2022-09-02T09:11:57;5.13;;;4.67;;
7983;SDS011;4037;47.980;10.172;2022-09-02T09:14:36;6.57;;;5.13;;
7983;SDS011;4037;47.980;10.172;2022-09-02T09:19:54;4.87;;;4.40;;
7983;SDS011;4037;47.980;10.172;2022-09-02T09:22:25;5.23;;;4.40;;
7983;SDS011;4037;47.980;10.172;2022-09-02T09:24:53;5.37;;;4.80;;
7983;SDS011;4037;47.980;10.172;2022-09-02T09:27:21;4.90;;;4.40;;
7983;SDS011;4037;47.980;10.172;2022-09-02T09:29:48;5.50;;;5.00;;
7983;SDS011;4037;47.980;10.172;2022-09-02T09:32:22;5.40;;;4.43;;
7983;SDS011;4037;47.980;10.172;2022-09-02T09:37:39;5.00;;;4.53;;
7983;SDS011;4037;47.980;10.172;2022-09-02T09:42:47;4.30;;;3.90;;
7983;SDS011;4037;47.980;10.172;2022-09-02T09:47:40;4.40;;;4.00;;
7983;SDS011;4037;47.980;10.172;2022-09-02T09:50:11;5.43;;;4.87;;
7983;SDS011;4037;47.980;10.172;2022-09-02T09:52:37;4.70;;;4.20;;
7983;SDS011;4037;47.980;10.172;2022-09-02T09:55:09;5.10;;;4.70;;
7983;SDS011;4037;47.980;10.172;2022-09-02T09:57:42;5.33;;;4.83;;
7983;SDS011;4037;47.980;10.172;2022-09-02T10:00:19;5.20;;;4.20;;
7983;SDS011;4037;47.980;10.172;2022-09-02T10:02:47;5.17;;;4.70;;
7983;SDS011;4037;47.980;10.172;2022-09-02T10:07:52;4.20;;;3.67;;
7983;SDS011;4037;47.980;10.172;2022-09-02T10:10:20;8.47;;;4.50;;
7983;SDS011;4037;47.980;10.172;2022-09-02T10:12:47;4.90;;;4.50;;
7983;SDS011;4037;47.980;10.172;2022-09-02T10:15:13;7.27;;;4.30;;
7983;SDS011;4037;47.980;10.172;2022-09-02T10:17:43;5.60;;;4.37;;
7983;SDS011;4037;47.980;10.172;2022-09-02T10:22:54;4.57;;;4.17;;
7983;SDS011;4037;47.980;10.172;2022-09-02T10:28:03;5.83;;;5.10;;
7983;SDS011;4037;47.980;10.172;2022-09-02T10:33:29;5.33;;;4.40;;
7983;SDS011;4037;47.980;10.172;2022-09-02T10:38:43;4.00;;;3.60;;
7983;SDS011;4037;47.980;10.172;2022-09-02T10:41:20;4.40;;;4.00;;
7983;SDS011;4037;47.980;10.172;2022-09-02T10:46:45;4.30;;;3.90;;
7983;SDS011;4037;47.980;10.172;2022-09-02T10:49:21;5.33;;;4.53;;
7983;SDS011;4037;47.980;10.172;2022-09-02T10:54:51;4.63;;;4.03;;
7983;SDS011;4037;47.980;10.172;2022-09-02T11:02:31;4.17;;;3.57;;
7983;SDS011;4037;47.980;10.172;2022-09-02T11:05:01;4.03;;;3.50;;
7983;SDS011;4037;47.980;10.172;2022-09-02T11:07:41;3.77;;;3.40;;
7983;SDS011;4037;47.980;10.172;2022-09-02T11:10:16;4.17;;;3.40;;
7983;SDS011;4037;47.980;10.172;2022-09-02T11:12:46;4.10;;;3.70;;
7983;SDS011;4037;47.980;10.172;2022-09-02T11:20:59;4.17;;;3.30;;
7983;SDS011;4037;47.980;10.172;2022-09-02T11:26:10;4.00;;;3.70;;
7983;SDS011;4037;47.980;10.172;2022-09-02T11:31:11;4.77;;;3.00;;
7983;SDS011;4037;47.980;10.172;2022-09-02T11:36:44;3.70;;;2.83;;
7983;SDS011;4037;47.980;10.172;2022-09-02T11:39:12;3.80;;;3.50;;
7983;SDS011;4037;47.980;10.172;2022-09-02T11:55:07;3.40;;;2.80;;
7983;SDS011;4037;47.980;10.172;2022-09-02T11:57:35;3.30;;;3.00;;
7983;SDS011;4037;47.980;10.172;2022-09-02T12:00:24;3.07;;;2.70;;
7983;SDS011;4037;47.980;10.172;2022-09-02T12:02:54;4.00;;;3.10;;
7983;SDS011;4037;47.980;10.172;2022-09-02T12:07:55;5.10;;;2.97;;
7983;SDS011;4037;47.980;10.172;2022-09-02T12:13:04;2.30;;;2.10;;
7983;SDS011;4037;47.980;10.172;2022-09-02T12:15:31;2.63;;;2.33;;
7983;SDS011;4037;47.980;10.172;2022-09-02T12:24:01;2.55;;;2.30;;
7983;SDS011;4037;47.980;10.172;2022-09-02T12:26:01;3.63;;;2.72;;
7983;SDS011;4037;47.980;10.172;2022-09-02T12:28:27;3.15;;;2.85;;
7983;SDS011;4037;47.980;10.172;2022-09-02T12:33:39;2.60;;;2.30;;
7983;SDS011;4037;47.980;10.172;2022-09-02T12:36:06;2.30;;;2.10;;
7983;SDS011;4037;47.980;10.172;2022-09-02T12:38:33;2.35;;;2.15;;
7983;SDS011;4037;47.980;10.172;2022-09-02T12:43:35;2.58;;;2.22;;
7983;SDS011;4037;47.980;10.172;2022-09-02T12:46:23;2.47;;;1.90;;
7983;SDS011;4037;47.980;10.172;2022-09-02T12:49:00;2.30;;;2.10;;
7983;SDS011;4037;47.980;10.172;2022-09-02T12:54:13;2.90;;;2.00;;
7983;SDS011;4037;47.980;10.172;2022-09-02T12:56:45;2.38;;;1.88;;
7983;SDS011;4037;47.980;10.172;2022-09-02T12:59:12;2.13;;;1.92;;
7983;SDS011;4037;47.980;10.172;2022-09-02T13:01:47;3.05;;;2.08;;
7983;SDS011;4037;47.980;10.172;2022-09-02T13:05:00;1.98;;;1.77;;
7983;SDS011;4037;47.980;10.172;2022-09-02T13:15:11;2.90;;;1.85;;
7983;SDS011;4037;47.980;10.172;2022-09-02T13:25:48;2.35;;;2.08;;
7983;SDS011;4037;47.980;10.172;2022-09-02T13:33:22;2.28;;;2.00;;
7983;SDS011;4037;47.980;10.172;2022-09-02T13:35:52;1.95;;;1.70;;
7983;SDS011;4037;47.980;10.172;2022-09-02T13:38:22;2.40;;;1.90;;
7983;SDS011;4037;47.980;10.172;2022-09-02T13:40:48;3.00;;;2.22;;
7983;SDS011;4037;47.980;10.172;2022-09-02T13:45:41;1.60;;;1.50;;
7983;SDS011;4037;47.980;10.172;2022-09-02T13:48:09;2.95;;;1.70;;
7983;SDS011;4037;47.980;10.172;2022-09-02T13:50:35;1.75;;;1.63;;
7983;SDS011;4037;47.980;10.172;2022-09-02T13:53:05;2.10;;;1.80;;
7983;SDS011;4037;47.980;10.172;2022-09-02T13:55:32;2.25;;;1.85;;
7983;SDS011;4037;47.980;10.172;2022-09-02T13:57:59;1.92;;;1.77;;
7983;SDS011;4037;47.980;10.172;2022-09-02T14:00:37;2.05;;;1.55;;
7983;SDS011;4037;47.980;10.172;2022-09-02T14:03:04;2.10;;;1.90;;
7983;SDS011;4037;47.980;10.172;2022-09-02T14:05:32;3.13;;;1.90;;
7983;SDS011;4037;47.980;10.172;2022-09-02T14:07:59;2.10;;;1.90;;
7983;SDS011;4037;47.980;10.172;2022-09-02T14:10:27;1.98;;;1.77;;
7983;SDS011;4037;47.980;10.172;2022-09-02T14:12:54;2.05;;;1.85;;
7983;SDS011;4037;47.980;10.172;2022-09-02T14:15:25;2.83;;;2.08;;
7983;SDS011;4037;47.980;10.172;2022-09-02T14:20:38;2.05;;;1.85;;
7983;SDS011;4037;47.980;10.172;2022-09-02T14:23:05;2.65;;;2.45;;
7983;SDS011;4037;47.980;10.172;2022-09-02T14:25:34;2.40;;;1.95;;
7983;SDS011;4037;47.980;10.172;2022-09-02T14:28:02;2.55;;;2.05;;
7983;SDS011;4037;47.980;10.172;2022-09-02T14:33:15;2.85;;;1.77;;
7983;SDS011;4037;47.980;10.172;2022-09-02T14:35:41;2.33;;;2.13;;
7983;SDS011;4037;47.980;10.172;2022-09-02T14:38:22;3.17;;;2.13;;
7983;SDS011;4037;47.980;10.172;2022-09-02T14:40:48;2.13;;;1.77;;
7983;SDS011;4037;47.980;10.172;2022-09-02T14:43:23;2.05;;;1.88;;
7983;SDS011;4037;47.980;10.172;2022-09-02T14:45:49;3.33;;;2.08;;
7983;SDS011;4037;47.980;10.172;2022-09-02T14:48:22;2.00;;;1.80;;
7983;SDS011;4037;47.980;10.172;2022-09-02T14:50:49;2.25;;;1.83;;
7983;SDS011;4037;47.980;10.172;2022-09-02T14:53:23;2.13;;;1.92;;
7983;SDS011;4037;47.980;10.172;2022-09-02T14:55:50;2.20;;;2.00;;
7983;SDS011;4037;47.980;10.172;2022-09-02T14:58:17;1.85;;;1.75;;
7983;SDS011;4037;47.980;10.172;2022-09-02T15:00:47;2.50;;;1.88;;
7983;SDS011;4037;47.980;10.172;2022-09-02T15:03:16;2.50;;;1.60;;
7983;SDS011;4037;47.980;10.172;2022-09-02T15:05:42;2.15;;;1.90;;
7983;SDS011;4037;47.980;10.172;2022-09-02T15:08:09;1.80;;;1.70;;
7983;SDS011;4037;47.980;10.172;2022-09-02T15:10:35;4.03;;;2.30;;
7983;SDS011;4037;47.980;10.172;2022-09-02T15:13:04;2.40;;;1.92;;
7983;SDS011;4037;47.980;10.172;2022-09-02T15:15:31;2.15;;;1.88;;
7983;SDS011;4037;47.980;10.172;2022-09-02T15:17:57;2.05;;;1.75;;
7983;SDS011;4037;47.980;10.172;2022-09-02T15:20:23;1.90;;;1.80;;
7983;SDS011;4037;47.980;10.172;2022-09-02T15:22:50;2.65;;;1.90;;
7983;SDS011;4037;47.980;10.172;2022-09-02T15:25:17;2.42;;;2.05;;
7983;SDS011;4037;47.980;10.172;2022-09-02T15:27:43;2.92;;;1.83;;
7983;SDS011;4037;47.980;10.172;2022-09-02T15:30:09;2.17;;;1.80;;
7983;SDS011;4037;47.980;10.172;2022-09-02T15:32:35;3.33;;;1.92;;
7983;SDS011;4037;47.980;10.172;2022-09-02T15:35:02;2.20;;;1.83;;
7983;SDS011;4037;47.980;10.172;2022-09-02T15:37:28;2.10;;;1.90;;
7983;SDS011;4037;47.980;10.172;2022-09-02T15:39:54;2.22;;;2.03;;
7983;SDS011;4037;47.980;10.172;2022-09-02T15:42:20;2.42;;;1.90;;
7983;SDS011;4037;47.980;10.172;2022-09-02T15:44:46;2.60;;;1.85;;
7983;SDS011;4037;47.980;10.172;2022-09-02T15:47:12;3.67;;;2.03;;
7983;SDS011;4037;47.980;10.172;2022-09-02T15:49:38;2.42;;;2.20;;
7983;SDS011;4037;47.980;10.172;2022-09-02T15:52:04;2.30;;;2.10;;
7983;SDS011;4037;47.980;10.172;2022-09-02T15:54:30;2.75;;;2.22;;
7983;SDS011;4037;47.980;10.172;2022-09-02T15:56:56;2.63;;;2.22;;
7983;SDS011;4037;47.980;10.172;2022-09-02T15:59:23;3.70;;;1.95;;
7983;SDS011;4037;47.980;10.172;2022-09-02T16:01:50;3.38;;;2.17;;
7983;SDS011;4037;47.980;10.172;2022-09-02T16:04:19;3.20;;;2.00;;
7983;SDS011;4037;47.980;10.172;2022-09-02T16:06:46;2.33;;;2.05;;
7983;SDS011;4037;47.980;10.172;2022-09-02T16:09:13;2.53;;;2.00;;
7983;SDS011;4037;47.980;10.172;2022-09-02T16:11:40;2.40;;;2.20;;
7983;SDS011;4037;47.980;10.172;2022-09-02T16:14:07;2.50;;;2.05;;
7983;SDS011;4037;47.980;10.172;2022-09-02T16:16:33;1.88;;;1.73;;
7983;SDS011;4037;47.980;10.172;2022-09-02T16:19:01;3.60;;;1.92;;
7983;SDS011;4037;47.980;10.172;2022-09-02T16:21:27;2.63;;;1.98;;
7983;SDS011;4037;47.980;10.172;2022-09-02T16:23:53;2.42;;;1.70;;
7983;SDS011;4037;47.980;10.172;2022-09-02T16:26:23;3.40;;;1.83;;
7983;SDS011;4037;47.980;10.172;2022-09-02T16:28:54;2.63;;;1.77;;
7983;SDS011;4037;47.980;10.172;2022-09-02T16:31:20;2.35;;;2.00;;
7983;SDS011;4037;47.980;10.172;2022-09-02T16:36:20;3.00;;;2.17;;
7983;SDS011;4037;47.980;10.172;2022-09-02T16:38:46;2.00;;;1.80;;
7983;SDS011;4037;47.980;10.172;2022-09-02T16:41:23;2.42;;;2.20;;
7983;SDS011;4037;47.980;10.172;2022-09-02T16:43:51;2.53;;;2.00;;
7983;SDS011;4037;47.980;10.172;2022-09-02T16:46:17;3.83;;;2.00;;
7983;SDS011;4037;47.980;10.172;2022-09-02T16:48:43;3.70;;;1.58;;
7983;SDS011;4037;47.980;10.172;2022-09-02T16:51:09;2.03;;;1.77;;
7983;SDS011;4037;47.980;10.172;2022-09-02T16:53:35;1.85;;;1.52;;
7983;SDS011;4037;47.980;10.172;2022-09-02T16:56:01;1.55;;;1.30;;
7983;SDS011;4037;47.980;10.172;2022-09-02T16:58:28;2.05;;;1.67;;
7983;SDS011;4037;47.980;10.172;2022-09-02T17:00:54;1.98;;;1.65;;
7983;SDS011;4037;47.980;10.172;2022-09-02T17:03:20;2.15;;;1.60;;
7983;SDS011;4037;47.980;10.172;2022-09-02T17:05:46;3.10;;;1.42;;
7983;SDS011;4037;47.980;10.172;2022-09-02T17:08:13;4.22;;;1.70;;
7983;SDS011;4037;47.980;10.172;2022-09-02T17:10:40;3.17;;;1.70;;
7983;SDS011;4037;47.980;10.172;2022-09-02T17:13:06;2.77;;;1.57;;
7983;SDS011;4037;47.980;10.172;2022-09-02T17:15:32;1.93;;;1.60;;